首页
METAR-TAF:

METAR-TAF

机场 :

Waddington, 英格兰

纬度: 53-10N, 经度: 000-31W, 海拔: 68米

当前天气观测

该预报发布于57分钟前的07:50 UTC
风速9节,风向西南
温度 1°C
湿度 93%
气压 1023 hPa
能见度10公里或以上

METAR: EGXW 180750Z AUTO 23009KT 9999 NCD 01/00 Q1023

时间: 08:47 (08:47 UTC)

预报

该预报发布于15小时和52分钟前的16:55 UTC
预报有效从17日的 18点(UTC)到 18日的 12点(UTC)
风速12节,风向西南
能见度10公里或以上
少量云层高于2500英尺
几率 30% :
短暂存在
从 17日的 22点(UTC)到 18日的 01点(UTC)
能見度: 7000
多云层高于1800英尺
阵雨

TAF: EGXW 171655Z 1718/1812 23012KT 9999 FEW025 PROB30 TEMPO 1722/1801 7000 SHRA BKN018

超过4000个机场的气象观测和天气预报(METAR&TAF报告)。

可查询的气象台以黄色和红色小点在地图上表示。

将鼠标移到小点上方,可查看气象台名称。

然后点击查看天气观测和预报。

如需切换地图:点击带黑十字的绿色按钮放大地图;点击带横线的绿色按钮缩小地图;或者点击绿色箭头查看邻近地区的地图。


METAR-TAF: